Time;durP1;ratioP1;P1;durP2;ratioP2;P2;SDS_P1;SDS_P2;PMS_P1;PMS_P2;Temp;Humidity;BMP_temperature;BMP_pressure;BME280_temperature;BME280_humidity;BME280_pressure;Samples;Min_cycle;Max_cycle;Signal;HPM_P1;HPM_P2
2021/03/16 00:00:42;;;;;;;0.32;0.32;;;5.40;99.90;;;;;;4445807;32;20420;-70
2021/03/16 00:03:07;;;;;;;0.32;0.32;;;5.40;99.90;;;;;;4445050;32;20118;-72
2021/03/16 00:05:33;;;;;;;0.37;0.37;;;5.30;99.90;;;;;;4444785;32;20519;-72
2021/03/16 00:07:58;;;;;;;0.45;0.45;;;5.30;99.90;;;;;;4444427;32;20417;-72
2021/03/16 00:10:24;;;;;;;0.40;0.40;;;5.40;99.90;;;;;;4432215;32;20073;-72
2021/03/16 00:12:50;;;;;;;0.30;0.30;;;5.40;99.90;;;;;;4428895;32;20069;-72
2021/03/16 00:15:15;;;;;;;0.20;0.20;;;5.40;99.90;;;;;;4429093;32;20161;-72
2021/03/16 00:17:42;;;;;;;0.30;0.30;;;5.40;99.90;;;;;;4429117;32;20290;-72
2021/03/16 00:20:08;;;;;;;0.30;0.30;;;5.40;99.90;;;;;;4430068;32;20112;-73
2021/03/16 00:22:34;;;;;;;0.40;0.40;;;5.30;99.90;;;;;;4429726;32;20066;-73
2021/03/16 00:24:59;;;;;;;0.30;0.30;;;5.30;99.90;;;;;;4429492;32;20057;-73
2021/03/16 00:27:25;;;;;;;2.17;1.27;;;5.30;99.90;;;;;;4429413;32;20057;-73
2021/03/16 00:29:50;;;;;;;0.40;0.40;;;5.30;99.90;;;;;;4428993;32;20119;-73
2021/03/16 00:32:16;;;;;;;0.40;0.40;;;5.30;99.90;;;;;;4428928;32;20073;-73
2021/03/16 00:34:41;;;;;;;0.30;0.30;;;5.30;99.90;;;;;;4430424;32;20122;-73
2021/03/16 00:37:07;;;;;;;0.30;0.30;;;5.20;99.90;;;;;;4429638;32;20062;-73
2021/03/16 00:39:32;;;;;;;0.30;0.30;;;5.20;99.90;;;;;;4428442;32;20468;-72
2021/03/16 00:41:58;;;;;;;0.30;0.30;;;5.10;99.90;;;;;;4429072;32;20061;-72
2021/03/16 00:44:23;;;;;;;0.30;0.30;;;5.10;99.90;;;;;;4428945;32;20510;-72
2021/03/16 00:46:49;;;;;;;0.30;0.30;;;5.00;99.90;;;;;;4428849;32;20070;-72
2021/03/16 00:49:14;;;;;;;0.30;0.30;;;5.10;99.90;;;;;;4428617;32;20494;-72
2021/03/16 00:51:40;;;;;;;0.40;0.40;;;5.10;99.90;;;;;;4428958;32;20061;-72
2021/03/16 00:54:05;;;;;;;1.98;0.60;;;5.10;99.90;;;;;;4428836;32;20086;-72
2021/03/16 00:56:31;;;;;;;0.95;0.90;;;5.00;99.90;;;;;;4429180;32;20065;-72
2021/03/16 00:58:57;;;;;;;0.30;0.30;;;5.10;99.90;;;;;;4428179;32;20077;-72
2021/03/16 01:01:22;;;;;;;1.00;0.93;;;5.10;99.90;;;;;;4428708;32;20154;-72
2021/03/16 01:03:48;;;;;;;0.40;0.40;;;5.20;99.90;;;;;;4429027;32;20069;-73
2021/03/16 01:06:13;;;;;;;0.37;0.37;;;5.20;99.90;;;;;;4429158;32;20379;-73
2021/03/16 01:08:39;;;;;;;0.68;0.68;;;5.30;99.90;;;;;;4423161;32;20089;-73
2021/03/16 01:11:04;;;;;;;0.35;0.35;;;5.30;99.90;;;;;;4425714;32;20577;-73
2021/03/16 01:13:31;;;;;;;0.30;0.30;;;5.20;99.90;;;;;;4428297;32;20061;-73
2021/03/16 01:15:57;;;;;;;0.30;0.30;;;5.20;99.90;;;;;;4428381;32;20061;-72
2021/03/16 01:18:22;;;;;;;0.40;0.40;;;5.20;99.90;;;;;;4428689;32;20074;-73
2021/03/16 01:20:48;;;;;;;1.12;0.43;;;5.20;99.90;;;;;;4428196;32;20437;-73
2021/03/16 01:23:13;;;;;;;0.30;0.30;;;5.20;99.90;;;;;;4429703;32;20066;-73
2021/03/16 01:25:39;;;;;;;0.32;0.32;;;5.20;99.90;;;;;;4429821;32;20450;-73
2021/03/16 01:28:06;;;;;;;0.43;0.43;;;5.20;99.90;;;;;;4427967;32;20057;-73
2021/03/16 01:30:32;;;;;;;0.77;0.35;;;5.10;99.90;;;;;;4429951;32;20061;-73
2021/03/16 01:32:57;;;;;;;0.40;0.40;;;5.10;99.90;;;;;;4431118;32;20061;-72
2021/03/16 01:35:23;;;;;;;0.43;0.43;;;5.10;99.90;;;;;;4431272;32;20077;-73
2021/03/16 01:37:54;;;;;;;0.30;0.30;;;5.10;99.90;;;;;;4431427;32;20130;-73
2021/03/16 01:40:27;;;;;;;0.43;0.43;;;5.00;99.90;;;;;;4430438;32;20161;-73
2021/03/16 01:43:05;;;;;;;0.30;0.30;;;5.10;99.90;;;;;;4431410;32;20433;-73
2021/03/16 01:45:30;;;;;;;0.28;0.28;;;5.10;99.90;;;;;;4430918;32;20157;-72
2021/03/16 01:47:56;;;;;;;0.30;0.30;;;5.20;99.90;;;;;;4431400;32;20072;-73
2021/03/16 01:50:21;;;;;;;0.35;0.35;;;5.10;99.90;;;;;;4430845;32;20061;-73
2021/03/16 01:52:50;;;;;;;0.30;0.30;;;5.10;99.90;;;;;;4430897;32;20062;-73
2021/03/16 01:55:16;;;;;;;0.40;0.40;;;5.00;99.90;;;;;;4431725;32;20074;-73
2021/03/16 01:57:44;;;;;;;0.40;0.40;;;5.00;99.90;;;;;;4431358;32;20064;-73
2021/03/16 02:00:10;;;;;;;1.20;1.10;;;5.00;99.90;;;;;;4430480;32;20182;-73
2021/03/16 02:02:36;;;;;;;0.30;0.30;;;5.00;99.90;;;;;;4430857;32;20100;-73
2021/03/16 02:05:06;;;;;;;0.57;0.57;;;5.10;99.90;;;;;;4432052;32;20544;-73
2021/03/16 02:07:39;;;;;;;0.40;0.40;;;5.10;99.90;;;;;;4431604;32;20162;-73
2021/03/16 02:10:14;;;;;;;0.30;0.30;;;5.00;99.90;;;;;;4426538;32;20086;-73
2021/03/16 02:12:45;;;;;;;0.50;0.50;;;5.00;99.90;;;;;;4430495;32;20116;-73
2021/03/16 02:15:17;;;;;;;0.68;0.68;;;5.00;99.90;;;;;;4430941;32;20511;-73
2021/03/16 02:17:50;;;;;;;0.30;0.30;;;5.00;99.90;;;;;;4431289;32;20077;-73
2021/03/16 02:20:32;;;;;;;0.60;0.60;;;4.90;99.90;;;;;;4430168;32;20085;-73
2021/03/16 02:23:01;;;;;;;0.50;0.50;;;4.90;99.90;;;;;;4431115;32;20069;-73
2021/03/16 02:25:57;;;;;;;0.30;0.30;;;4.90;99.90;;;;;;4430419;32;20065;-73
2021/03/16 02:29:02;;;;;;;0.30;0.30;;;5.00;99.90;;;;;;4428812;32;20397;-73
2021/03/16 02:31:28;;;;;;;0.32;0.32;;;5.00;99.90;;;;;;4420731;32;20407;-73
2021/03/16 02:33:56;;;;;;;0.30;0.30;;;4.90;99.90;;;;;;4430591;32;20077;-73
2021/03/16 02:36:23;;;;;;;0.40;0.40;;;4.90;99.90;;;;;;4430338;32;20120;-73
2021/03/16 02:38:51;;;;;;;0.35;0.35;;;4.90;99.90;;;;;;4430170;32;20457;-73
2021/03/16 02:41:20;;;;;;;0.40;0.40;;;5.00;99.90;;;;;;4430399;32;20187;-72
2021/03/16 02:43:47;;;;;;;0.40;0.40;;;5.00;99.90;;;;;;4431160;32;20490;-72
2021/03/16 02:46:13;;;;;;;0.37;0.37;;;4.90;99.90;;;;;;4430055;32;20078;-72
2021/03/16 02:48:39;;;;;;;0.30;0.30;;;4.90;99.90;;;;;;4431882;32;20073;-72
2021/03/16 02:51:05;;;;;;;0.32;0.32;;;4.90;99.90;;;;;;4430809;32;20505;-73
2021/03/16 02:53:33;;;;;;;0.35;0.35;;;4.90;99.90;;;;;;4431156;32;20062;-73
2021/03/16 02:55:59;;;;;;;0.30;0.30;;;4.90;99.90;;;;;;4431433;32;20475;-73
2021/03/16 02:58:26;;;;;;;0.45;0.45;;;4.80;99.90;;;;;;4430846;32;20550;-72
2021/03/16 03:00:52;;;;;;;0.75;0.75;;;4.80;99.90;;;;;;4431307;32;20115;-72
2021/03/16 03:03:21;;;;;;;0.40;0.40;;;4.80;99.90;;;;;;4430796;32;20116;-72
2021/03/16 03:05:48;;;;;;;0.40;0.40;;;4.80;99.90;;;;;;4430235;32;20069;-73
2021/03/16 03:08:15;;;;;;;0.30;0.30;;;4.80;99.90;;;;;;4429944;32;20074;-73
2021/03/16 03:10:40;;;;;;;0.40;0.40;;;4.80;99.90;;;;;;4439662;32;20387;-73
2021/03/16 03:13:06;;;;;;;0.30;0.30;;;4.80;99.90;;;;;;4446163;32;20110;-73
2021/03/16 03:15:32;;;;;;;0.30;0.30;;;4.80;99.90;;;;;;4446294;32;20061;-72
2021/03/16 03:17:58;;;;;;;0.30;0.30;;;4.70;99.90;;;;;;4446057;32;20065;-72
2021/03/16 03:20:23;;;;;;;0.30;0.30;;;4.80;99.90;;;;;;4445463;32;20362;-72
2021/03/16 03:22:56;;;;;;;0.50;0.50;;;4.70;99.90;;;;;;4445638;32;20127;-72
2021/03/16 03:25:26;;;;;;;0.30;0.30;;;4.70;99.90;;;;;;4446304;32;20061;-72
2021/03/16 03:28:00;;;;;;;0.30;0.30;;;4.80;99.90;;;;;;4445536;32;20108;-72
2021/03/16 03:30:26;;;;;;;0.40;0.40;;;4.70;99.90;;;;;;4445700;32;20168;-72
2021/03/16 03:32:58;;;;;;;0.30;0.30;;;4.70;99.90;;;;;;4445236;32;20062;-72
2021/03/16 03:35:27;;;;;;;0.30;0.30;;;4.70;99.90;;;;;;4445119;32;20081;-72
2021/03/16 03:37:54;;;;;;;0.45;0.45;;;4.70;99.90;;;;;;4444997;32;20057;-72
2021/03/16 03:40:20;;;;;;;0.50;0.50;;;4.60;99.90;;;;;;4444562;32;20077;-72
2021/03/16 03:42:46;;;;;;;0.30;0.30;;;4.70;99.90;;;;;;4445786;32;20139;-72
2021/03/16 03:45:13;;;;;;;0.35;0.35;;;4.60;99.90;;;;;;4445179;32;20499;-72
2021/03/16 03:47:41;;;;;;;0.40;0.40;;;4.70;99.90;;;;;;4445366;32;20077;-72
2021/03/16 03:50:08;;;;;;;0.40;0.40;;;4.60;99.90;;;;;;4445825;32;20074;-72
2021/03/16 03:52:35;;;;;;;0.28;0.28;;;4.60;99.90;;;;;;4444672;32;20081;-72
2021/03/16 03:55:01;;;;;;;0.30;0.30;;;4.70;99.90;;;;;;4444941;32;20073;-72
2021/03/16 03:57:27;;;;;;;0.30;0.30;;;4.70;99.90;;;;;;4444300;32;20065;-72
2021/03/16 03:59:53;;;;;;;0.30;0.30;;;4.70;99.90;;;;;;4444915;32;20139;-72
2021/03/16 04:02:19;;;;;;;0.37;0.37;;;4.80;99.90;;;;;;4444621;32;20412;-72
2021/03/16 04:04:45;;;;;;;0.45;0.45;;;4.90;99.90;;;;;;4445130;32;20061;-72
2021/03/16 04:07:11;;;;;;;0.32;0.32;;;4.80;99.90;;;;;;4446281;32;20064;-72
2021/03/16 04:09:37;;;;;;;0.40;0.40;;;4.80;99.90;;;;;;4435891;32;20061;-72
2021/03/16 04:12:04;;;;;;;0.40;0.40;;;4.80;99.90;;;;;;4429208;32;20061;-72
2021/03/16 04:14:32;;;;;;;0.30;0.30;;;4.80;99.90;;;;;;4429427;32;20531;-72
2021/03/16 04:16:58;;;;;;;0.30;0.30;;;4.80;99.90;;;;;;4428766;32;20061;-72
2021/03/16 04:19:23;;;;;;;1.55;1.15;;;4.70;99.90;;;;;;4429361;32;20476;-72
2021/03/16 04:21:50;;;;;;;0.30;0.30;;;4.70;99.90;;;;;;4429079;32;20091;-72
2021/03/16 04:24:16;;;;;;;0.65;0.65;;;4.70;99.90;;;;;;4429286;32;20507;-72
2021/03/16 04:26:41;;;;;;;0.50;0.50;;;4.80;99.90;;;;;;4429831;32;20061;-71
2021/03/16 04:29:07;;;;;;;0.30;0.30;;;4.70;99.90;;;;;;4428609;32;20089;-71
2021/03/16 04:31:32;;;;;;;0.43;0.43;;;4.70;99.90;;;;;;4430074;32;20057;-72
2021/03/16 04:33:58;;;;;;;0.30;0.30;;;4.70;99.90;;;;;;4428647;32;20107;-72
2021/03/16 04:36:23;;;;;;;0.30;0.30;;;4.70;99.90;;;;;;4429153;32;20057;-72
2021/03/16 04:38:48;;;;;;;0.68;0.68;;;4.70;99.90;;;;;;4429023;32;20078;-72
2021/03/16 04:41:14;;;;;;;0.40;0.40;;;4.70;99.90;;;;;;4429111;32;20058;-72
2021/03/16 04:43:42;;;;;;;0.50;0.50;;;4.60;99.90;;;;;;4428570;32;20191;-72
2021/03/16 04:46:08;;;;;;;0.30;0.30;;;4.60;99.90;;;;;;4430104;32;20065;-72
2021/03/16 04:48:35;;;;;;;1.12;0.73;;;4.50;99.90;;;;;;4429035;32;20156;-72
2021/03/16 04:51:00;;;;;;;0.40;0.40;;;4.50;99.90;;;;;;4428771;32;20077;-72
2021/03/16 04:53:26;;;;;;;0.30;0.30;;;4.60;99.90;;;;;;4428962;32;20117;-72
2021/03/16 04:55:51;;;;;;;0.30;0.30;;;4.50;99.90;;;;;;4428844;32;20143;-72
2021/03/16 04:58:17;;;;;;;0.35;0.35;;;4.50;99.90;;;;;;4428960;32;20069;-72
2021/03/16 05:00:42;;;;;;;0.47;0.47;;;4.50;99.90;;;;;;4429577;32;20057;-72
2021/03/16 05:03:08;;;;;;;0.85;0.85;;;4.60;99.90;;;;;;4429980;32;20078;-72
2021/03/16 05:05:33;;;;;;;0.40;0.40;;;4.60;99.90;;;;;;4427790;32;20078;-72
2021/03/16 05:07:59;;;;;;;0.40;0.40;;;4.70;99.90;;;;;;4428950;32;20507;-72
2021/03/16 05:10:25;;;;;;;0.30;0.30;;;4.70;99.90;;;;;;4436623;32;20075;-72
2021/03/16 05:12:50;;;;;;;0.40;0.40;;;4.70;99.90;;;;;;4443377;32;20120;-72
2021/03/16 05:15:16;;;;;;;0.30;0.30;;;4.60;99.90;;;;;;4443747;32;20066;-72
2021/03/16 05:17:42;;;;;;;0.40;0.40;;;4.60;99.90;;;;;;4444402;32;20076;-72
2021/03/16 05:20:08;;;;;;;0.40;0.40;;;4.60;99.90;;;;;;4444133;32;20066;-72
2021/03/16 05:22:34;;;;;;;0.40;0.40;;;4.50;99.90;;;;;;4444553;32;20493;-72
2021/03/16 05:24:59;;;;;;;0.30;0.30;;;4.60;99.90;;;;;;4443545;32;20120;-72
2021/03/16 05:27:25;;;;;;;3.08;0.57;;;4.60;99.90;;;;;;4444346;32;20124;-72
2021/03/16 05:29:51;;;;;;;0.73;0.62;;;4.60;99.90;;;;;;4443434;32;20073;-72
2021/03/16 05:32:16;;;;;;;0.52;0.52;;;4.60;99.90;;;;;;4444181;32;20124;-71
2021/03/16 05:34:42;;;;;;;0.30;0.30;;;4.70;99.90;;;;;;4444535;32;20050;-72
2021/03/16 05:37:07;;;;;;;14.57;0.88;;;4.70;99.90;;;;;;4444521;32;20077;-72
2021/03/16 05:39:33;;;;;;;0.62;0.62;;;4.70;99.90;;;;;;4443735;32;20522;-72
2021/03/16 05:41:59;;;;;;;0.30;0.30;;;4.70;99.90;;;;;;4443254;32;20066;-72
2021/03/16 05:44:25;;;;;;;0.68;0.68;;;4.70;99.90;;;;;;4443786;32;20057;-72
2021/03/16 05:46:51;;;;;;;0.68;0.50;;;4.70;99.90;;;;;;4444867;32;20069;-72
2021/03/16 05:49:17;;;;;;;0.95;0.93;;;4.60;99.90;;;;;;4444597;32;20490;-72
2021/03/16 05:51:43;;;;;;;4.22;0.62;;;4.70;99.90;;;;;;4444498;32;20077;-72
2021/03/16 05:54:10;;;;;;;0.30;0.30;;;4.70;99.90;;;;;;4444913;32;20070;-72
2021/03/16 05:56:36;;;;;;;0.40;0.40;;;4.70;99.90;;;;;;4443453;32;20545;-72
2021/03/16 05:59:03;;;;;;;0.32;0.32;;;4.80;99.90;;;;;;4442503;32;20408;-72
2021/03/16 06:01:28;;;;;;;0.50;0.50;;;4.70;99.90;;;;;;4443918;32;20065;-72
2021/03/16 06:03:54;;;;;;;0.50;0.50;;;4.80;99.90;;;;;;4431710;32;20078;-72
2021/03/16 06:06:19;;;;;;;0.30;0.30;;;4.80;99.90;;;;;;4436693;32;20073;-72
2021/03/16 06:08:45;;;;;;;0.50;0.50;;;4.70;99.90;;;;;;4441106;32;20058;-72
2021/03/16 06:11:11;;;;;;;0.30;0.30;;;4.80;99.90;;;;;;4426357;32;20129;-72
2021/03/16 06:13:49;;;;;;;0.30;0.30;;;4.80;99.90;;;;;;4416914;32;20073;-72
2021/03/16 06:16:15;;;;;;;0.40;0.40;;;4.80;99.90;;;;;;4429667;32;20065;-72
2021/03/16 06:18:42;;;;;;;0.93;0.88;;;4.70;99.90;;;;;;4430729;32;20109;-72
2021/03/16 06:21:08;;;;;;;2.28;1.20;;;4.70;99.90;;;;;;4427325;32;20065;-72
2021/03/16 06:23:36;;;;;;;0.40;0.40;;;4.70;99.90;;;;;;4447321;32;20069;-72
2021/03/16 06:26:08;;;;;;;0.35;0.35;;;4.70;99.90;;;;;;4445747;32;20111;-72
2021/03/16 06:28:35;;;;;;;0.40;0.40;;;4.70;99.90;;;;;;4445686;32;20427;-72
2021/03/16 06:31:01;;;;;;;0.60;0.60;;;4.70;99.90;;;;;;4445739;32;20109;-72
2021/03/16 06:33:30;;;;;;;0.50;0.50;;;4.80;99.90;;;;;;4445791;32;20073;-72
2021/03/16 06:36:07;;;;;;;0.37;0.37;;;4.80;99.90;;;;;;4445811;32;20513;-72
2021/03/16 06:38:34;;;;;;;0.60;0.60;;;4.80;99.90;;;;;;4444998;32;20066;-72
2021/03/16 06:41:10;;;;;;;0.40;0.40;;;4.70;99.90;;;;;;4446040;32;20498;-72
2021/03/16 06:43:36;;;;;;;0.37;0.37;;;4.80;99.90;;;;;;4445551;32;20116;-72
2021/03/16 06:46:02;;;;;;;0.55;0.55;;;4.80;99.90;;;;;;4445760;32;20083;-72
2021/03/16 06:48:34;;;;;;;0.57;0.57;;;4.90;99.90;;;;;;4445431;32;20412;-72
2021/03/16 06:51:10;;;;;;;0.40;0.40;;;4.90;99.90;;;;;;4445700;32;20267;-72
2021/03/16 06:53:35;;;;;;;1.17;1.02;;;4.90;99.90;;;;;;4445272;32;20065;-73
2021/03/16 06:56:01;;;;;;;0.28;0.28;;;4.90;99.90;;;;;;4445326;32;20490;-72
2021/03/16 06:58:31;;;;;;;0.40;0.40;;;4.90;99.90;;;;;;4423244;32;20061;-72
2021/03/16 07:01:16;;;;;;;0.37;0.37;;;4.80;99.90;;;;;;4426184;32;20392;-72
2021/03/16 07:03:42;;;;;;;0.73;0.73;;;4.80;99.90;;;;;;4430505;32;20116;-72
2021/03/16 07:06:13;;;;;;;0.30;0.30;;;4.90;99.90;;;;;;4423215;32;20074;-73
2021/03/16 07:08:40;;;;;;;0.20;0.20;;;5.00;99.90;;;;;;4406449;32;20057;-73
2021/03/16 07:11:09;;;;;;;0.40;0.40;;;5.00;99.90;;;;;;4419633;32;20082;-73
2021/03/16 07:13:36;;;;;;;0.50;0.50;;;5.00;99.90;;;;;;4434596;32;20061;-72
2021/03/16 07:16:02;;;;;;;0.40;0.40;;;5.00;99.90;;;;;;4425936;32;20527;-71
2021/03/16 07:18:28;;;;;;;0.52;0.52;;;5.00;99.90;;;;;;4425890;32;20094;-73
2021/03/16 07:20:58;;;;;;;0.50;0.50;;;5.00;99.90;;;;;;4423280;32;20097;-73
2021/03/16 07:23:25;;;;;;;3.00;0.50;;;5.00;99.90;;;;;;4440980;32;20078;-73
2021/03/16 07:25:53;;;;;;;0.30;0.30;;;5.10;99.90;;;;;;4428754;32;20064;-72
2021/03/16 07:28:19;;;;;;;0.30;0.30;;;5.10;99.90;;;;;;4432050;32;20069;-73
2021/03/16 07:30:45;;;;;;;0.32;0.32;;;5.00;99.90;;;;;;4429795;32;20124;-71
2021/03/16 07:33:13;;;;;;;0.40;0.40;;;5.00;99.90;;;;;;4432880;32;20124;-71
2021/03/16 07:35:39;;;;;;;0.30;0.30;;;5.10;99.90;;;;;;4430627;32;20057;-72
2021/03/16 07:38:05;;;;;;;0.35;0.35;;;5.00;99.90;;;;;;4428621;32;20086;-72
2021/03/16 07:40:31;;;;;;;0.60;0.60;;;5.00;99.90;;;;;;4429739;32;20129;-72
2021/03/16 07:42:56;;;;;;;2.28;1.10;;;5.00;99.90;;;;;;4427271;32;20061;-72
2021/03/16 07:45:24;;;;;;;2.87;0.93;;;5.10;99.90;;;;;;4427738;32;20083;-73
2021/03/16 07:47:50;;;;;;;0.60;0.60;;;5.00;99.90;;;;;;4428389;32;20061;-72
2021/03/16 07:50:16;;;;;;;0.50;0.50;;;5.00;99.90;;;;;;4428203;32;20519;-72
2021/03/16 07:52:45;;;;;;;0.30;0.30;;;5.10;99.90;;;;;;4428037;32;20069;-72
2021/03/16 07:55:23;;;;;;;0.30;0.30;;;5.10;99.90;;;;;;4428271;32;20152;-72
2021/03/16 07:57:49;;;;;;;0.82;0.82;;;5.10;99.90;;;;;;4428581;32;20393;-72
2021/03/16 08:00:16;;;;;;;0.40;0.40;;;5.30;99.90;;;;;;4424245;32;20121;-72
2021/03/16 08:02:44;;;;;;;0.30;0.30;;;5.30;99.90;;;;;;4428529;32;20073;-72
2021/03/16 08:05:17;;;;;;;0.35;0.35;;;5.30;99.90;;;;;;4421706;32;20528;-72
2021/03/16 08:07:43;;;;;;;0.40;0.40;;;5.20;99.90;;;;;;4427277;32;20511;-72
2021/03/16 08:10:10;;;;;;;0.65;0.55;;;5.20;99.90;;;;;;4435320;32;20065;-73
2021/03/16 08:12:36;;;;;;;0.40;0.40;;;5.10;99.90;;;;;;4425711;32;20073;-73
2021/03/16 08:15:11;;;;;;;2.92;1.05;;;5.10;99.90;;;;;;4428591;32;20069;-72
2021/03/16 08:17:37;;;;;;;0.30;0.30;;;5.00;99.90;;;;;;4436627;32;20190;-73
2021/03/16 08:20:05;;;;;;;0.60;0.60;;;5.00;99.90;;;;;;4429030;32;20065;-73
2021/03/16 08:22:31;;;;;;;0.30;0.30;;;5.00;99.90;;;;;;4430027;32;20511;-73
2021/03/16 08:25:06;;;;;;;0.40;0.40;;;5.10;99.90;;;;;;4429913;32;20123;-73
2021/03/16 08:27:34;;;;;;;0.65;0.65;;;5.00;99.90;;;;;;4431736;32;20498;-73
2021/03/16 08:30:04;;;;;;;0.50;0.50;;;5.00;99.90;;;;;;4444313;32;20062;-73
2021/03/16 08:32:30;;;;;;;0.50;0.50;;;5.00;99.90;;;;;;4413601;32;20073;-73
2021/03/16 08:34:56;;;;;;;2.95;0.93;;;5.10;99.90;;;;;;4422608;32;20535;-73
2021/03/16 08:37:27;;;;;;;0.40;0.40;;;5.20;99.90;;;;;;4425191;32;20053;-73
2021/03/16 08:39:54;;;;;;;0.40;0.40;;;5.10;99.90;;;;;;4427501;32;20542;-73
2021/03/16 08:42:22;;;;;;;0.60;0.60;;;5.10;99.90;;;;;;4427409;32;20058;-73
2021/03/16 08:44:48;;;;;;;0.40;0.40;;;5.20;99.90;;;;;;4425086;32;20058;-73
2021/03/16 08:47:16;;;;;;;0.50;0.50;;;5.30;99.90;;;;;;4426638;32;20069;-73
2021/03/16 08:49:44;;;;;;;0.40;0.40;;;5.30;99.90;;;;;;4418740;32;20090;-73
2021/03/16 08:52:19;;;;;;;0.25;0.25;;;5.30;99.90;;;;;;4425992;32;20077;-73
2021/03/16 08:54:45;;;;;;;0.40;0.40;;;5.40;99.90;;;;;;4426979;32;20061;-73
2021/03/16 08:57:17;;;;;;;0.40;0.40;;;5.30;99.90;;;;;;4411703;32;20082;-73
2021/03/16 08:59:47;;;;;;;0.70;0.65;;;5.50;99.90;;;;;;4430766;32;20096;-73
2021/03/16 09:02:30;;;;;;;0.40;0.40;;;5.50;99.90;;;;;;4426807;32;20136;-73
2021/03/16 09:04:56;;;;;;;0.40;0.40;;;5.50;99.90;;;;;;4421777;32;20096;-73
2021/03/16 09:07:27;;;;;;;0.50;0.50;;;5.60;99.90;;;;;;4418709;32;20503;-73
2021/03/16 09:10:05;;;;;;;1.23;0.65;;;5.60;99.90;;;;;;4416901;32;20444;-73
2021/03/16 09:12:32;;;;;;;0.95;0.85;;;5.70;99.90;;;;;;4422225;32;20061;-73
2021/03/16 09:15:07;;;;;;;0.88;0.82;;;5.70;99.90;;;;;;4429657;32;20180;-73
2021/03/16 09:17:34;;;;;;;0.65;0.65;;;5.80;99.90;;;;;;4419522;32;20058;-73
2021/03/16 09:20:18;;;;;;;0.88;0.82;;;5.80;99.90;;;;;;4430209;32;20115;-73
2021/03/16 09:22:46;;;;;;;0.30;0.30;;;5.80;99.90;;;;;;4421510;32;20102;-73
2021/03/16 09:25:13;;;;;;;0.60;0.60;;;5.90;99.90;;;;;;4425211;32;20168;-73
2021/03/16 09:27:39;;;;;;;0.50;0.50;;;6.00;99.90;;;;;;4415343;32;20130;-73
2021/03/16 09:30:07;;;;;;;0.60;0.60;;;6.00;99.90;;;;;;4424240;32;20073;-74
2021/03/16 09:32:34;;;;;;;0.30;0.30;;;6.20;99.90;;;;;;4423824;32;20136;-73
2021/03/16 09:34:59;;;;;;;0.43;0.43;;;6.40;99.90;;;;;;4419227;32;20065;-73
2021/03/16 09:37:25;;;;;;;0.30;0.30;;;6.40;99.90;;;;;;4430053;32;20117;-73
2021/03/16 09:39:55;;;;;;;0.32;0.32;;;6.40;99.90;;;;;;4423769;32;20065;-73
2021/03/16 09:42:43;;;;;;;0.68;0.68;;;6.30;99.90;;;;;;4420926;32;20477;-73
2021/03/16 09:45:19;;;;;;;0.37;0.37;;;6.30;99.90;;;;;;4404560;32;20065;-73
2021/03/16 09:47:46;;;;;;;0.40;0.40;;;6.50;99.90;;;;;;4421100;32;20061;-73
2021/03/16 09:50:16;;;;;;;0.40;0.40;;;6.60;99.90;;;;;;4419786;32;20078;-73
2021/03/16 09:52:42;;;;;;;0.30;0.30;;;6.60;99.90;;;;;;4425635;32;20507;-72
2021/03/16 09:55:08;;;;;;;0.35;0.35;;;6.50;99.90;;;;;;4431576;32;20527;-72
2021/03/16 09:57:36;;;;;;;0.47;0.47;;;6.70;99.90;;;;;;4418402;32;20404;-73
2021/03/16 10:00:04;;;;;;;0.30;0.30;;;6.70;99.90;;;;;;4424141;32;20120;-72
2021/03/16 10:02:32;;;;;;;1.55;0.68;;;6.70;99.90;;;;;;4420287;32;20069;-72
2021/03/16 10:05:05;;;;;;;0.50;0.45;;;6.90;99.90;;;;;;4418833;32;20349;-72
2021/03/16 10:07:32;;;;;;;0.73;0.50;;;7.00;99.90;;;;;;4427157;32;20124;-72
2021/03/16 10:10:07;;;;;;;0.47;0.47;;;7.10;99.90;;;;;;4424121;32;20073;-72
2021/03/16 10:12:33;;;;;;;0.40;0.40;;;7.20;99.90;;;;;;4424894;32;20583;-72
2021/03/16 10:14:58;;;;;;;0.37;0.37;;;7.20;99.90;;;;;;4425109;32;20058;-73
2021/03/16 10:17:27;;;;;;;0.40;0.40;;;7.20;99.90;;;;;;4421190;32;20125;-73
2021/03/16 10:19:54;;;;;;;0.40;0.40;;;7.10;99.90;;;;;;4419484;32;20095;-73
2021/03/16 10:22:19;;;;;;;0.40;0.40;;;7.10;99.90;;;;;;4425157;32;20091;-72
2021/03/16 10:24:54;;;;;;;0.30;0.30;;;7.00;99.90;;;;;;4421819;32;20062;-73
2021/03/16 10:27:35;;;;;;;0.50;0.50;;;7.00;99.90;;;;;;4428888;32;20111;-73
2021/03/16 10:30:06;;;;;;;1.33;0.60;;;7.10;99.90;;;;;;4424241;32;20468;-73
2021/03/16 10:32:32;;;;;;;0.60;0.60;;;7.20;99.90;;;;;;4427121;32;20078;-73
2021/03/16 10:34:58;;;;;;;0.60;0.60;;;7.30;99.90;;;;;;4430153;32;20069;-73
2021/03/16 10:37:25;;;;;;;0.40;0.40;;;7.40;99.90;;;;;;4429649;32;20105;-73
2021/03/16 10:39:51;;;;;;;0.30;0.30;;;7.40;99.90;;;;;;4425072;32;20058;-73
2021/03/16 10:42:17;;;;;;;0.30;0.30;;;7.40;99.90;;;;;;4426001;32;20438;-73
2021/03/16 10:44:43;;;;;;;0.30;0.30;;;7.30;99.90;;;;;;4423631;32;79554;-73
2021/03/16 10:47:09;;;;;;;0.43;0.43;;;7.30;99.90;;;;;;4424529;32;20131;-73
2021/03/16 10:49:36;;;;;;;0.45;0.45;;;7.40;99.90;;;;;;4434287;32;20507;-73
2021/03/16 10:52:03;;;;;;;0.30;0.30;;;7.50;99.90;;;;;;4423737;32;20094;-72
2021/03/16 10:54:28;;;;;;;0.30;0.30;;;7.40;99.90;;;;;;4425799;32;20124;-72
2021/03/16 10:56:54;;;;;;;0.30;0.30;;;7.50;99.90;;;;;;4419660;32;20399;-72
2021/03/16 10:59:22;;;;;;;0.30;0.30;;;7.50;99.90;;;;;;4426017;32;20143;-72
2021/03/16 11:01:49;;;;;;;0.40;0.40;;;7.50;99.90;;;;;;4418295;32;20058;-72
2021/03/16 11:04:17;;;;;;;0.30;0.30;;;7.50;99.90;;;;;;4425138;32;20085;-72
2021/03/16 11:06:43;;;;;;;3.35;0.62;;;7.50;99.90;;;;;;4427446;32;20309;-72
2021/03/16 11:09:08;;;;;;;0.88;0.85;;;7.40;99.90;;;;;;4424265;32;20136;-72
2021/03/16 11:11:34;;;;;;;0.80;0.47;;;7.40;99.90;;;;;;4423129;32;20113;-72
2021/03/16 11:13:59;;;;;;;0.30;0.30;;;7.50;99.90;;;;;;4429561;32;20124;-73
2021/03/16 11:16:25;;;;;;;0.30;0.30;;;7.50;99.90;;;;;;4421988;32;20487;-73
2021/03/16 11:18:50;;;;;;;0.40;0.40;;;7.50;99.90;;;;;;4427036;32;20062;-72
2021/03/16 11:21:16;;;;;;;0.30;0.30;;;7.60;99.90;;;;;;4431285;32;20066;-73
2021/03/16 11:23:41;;;;;;;0.47;0.47;;;7.70;99.90;;;;;;4427338;32;20082;-74
2021/03/16 11:26:06;;;;;;;0.30;0.30;;;7.90;99.90;;;;;;4429182;32;20070;-73
2021/03/16 11:28:32;;;;;;;0.30;0.30;;;7.90;99.90;;;;;;4425215;32;20054;-73
2021/03/16 11:30:57;;;;;;;0.30;0.30;;;8.00;99.90;;;;;;4430957;32;20069;-72
2021/03/16 11:33:23;;;;;;;0.50;0.50;;;8.00;99.90;;;;;;4429219;32;20116;-72
2021/03/16 11:35:49;;;;;;;0.40;0.40;;;8.00;99.90;;;;;;4424569;32;20057;-72
2021/03/16 11:38:15;;;;;;;0.40;0.40;;;7.90;99.90;;;;;;4430190;32;20540;-72
2021/03/16 11:40:40;;;;;;;0.40;0.40;;;7.80;99.90;;;;;;4426243;32;20150;-73
2021/03/16 11:43:06;;;;;;;18.33;0.70;;;7.80;99.90;;;;;;4429322;32;20535;-72
2021/03/16 11:45:31;;;;;;;0.40;0.40;;;7.70;99.90;;;;;;4427470;32;20081;-72
2021/03/16 11:47:57;;;;;;;0.40;0.40;;;7.50;99.90;;;;;;4428928;32;20435;-72
2021/03/16 11:50:22;;;;;;;0.40;0.40;;;7.70;99.90;;;;;;4427402;32;20082;-73
2021/03/16 11:52:48;;;;;;;0.40;0.40;;;7.60;99.90;;;;;;4428086;32;20116;-72
2021/03/16 11:55:14;;;;;;;0.80;0.80;;;7.70;99.90;;;;;;4429204;32;20208;-72
2021/03/16 11:57:40;;;;;;;0.50;0.50;;;7.70;99.90;;;;;;4427424;32;20057;-72
2021/03/16 12:00:06;;;;;;;0.57;0.57;;;7.70;99.90;;;;;;4429060;32;20061;-72
2021/03/16 12:02:33;;;;;;;0.45;0.45;;;7.70;99.90;;;;;;4427589;32;20085;-72
2021/03/16 12:04:59;;;;;;;0.40;0.40;;;7.70;99.90;;;;;;4426050;32;20186;-72
2021/03/16 12:07:25;;;;;;;0.40;0.40;;;7.60;99.90;;;;;;4430374;32;20089;-73
2021/03/16 12:09:51;;;;;;;0.68;0.60;;;7.50;99.90;;;;;;4427133;32;20474;-72
2021/03/16 12:12:20;;;;;;;0.40;0.40;;;7.60;99.90;;;;;;4428046;32;20074;-72
2021/03/16 12:14:45;;;;;;;0.30;0.30;;;7.70;99.90;;;;;;4420219;32;20104;-72
2021/03/16 12:17:12;;;;;;;0.40;0.40;;;7.70;99.90;;;;;;4427666;32;20126;-72
2021/03/16 12:19:38;;;;;;;0.30;0.30;;;7.70;99.90;;;;;;4428098;32;20062;-72
2021/03/16 12:22:04;;;;;;;2.90;0.57;;;7.60;99.90;;;;;;4430060;32;20062;-72
2021/03/16 12:24:29;;;;;;;0.47;0.47;;;7.60;99.90;;;;;;4427864;32;20084;-72
2021/03/16 12:26:55;;;;;;;16.98;0.47;;;7.80;99.90;;;;;;4425215;32;20057;-72
2021/03/16 12:29:20;;;;;;;2.12;1.27;;;7.80;99.90;;;;;;4428900;32;20447;-72
2021/03/16 12:31:46;;;;;;;0.32;0.32;;;7.70;99.90;;;;;;4430809;32;20065;-72
2021/03/16 12:34:11;;;;;;;7.78;0.50;;;7.80;99.90;;;;;;4429870;32;20069;-72
2021/03/16 12:36:37;;;;;;;0.40;0.40;;;7.80;99.90;;;;;;4425922;32;20432;-72
2021/03/16 12:39:04;;;;;;;0.85;0.57;;;7.70;99.90;;;;;;4424749;32;20120;-72
2021/03/16 12:41:29;;;;;;;8.15;1.85;;;7.70;99.90;;;;;;4428309;32;20081;-72
2021/03/16 12:43:55;;;;;;;1.50;0.75;;;7.60;99.90;;;;;;4428597;32;20519;-72
2021/03/16 12:46:20;;;;;;;0.47;0.47;;;7.60;99.90;;;;;;4425593;32;20097;-72
2021/03/16 12:48:46;;;;;;;0.68;0.68;;;7.50;99.90;;;;;;4428469;32;20372;-72
2021/03/16 12:51:12;;;;;;;0.37;0.37;;;7.40;99.90;;;;;;4427163;32;20058;-72
2021/03/16 12:53:37;;;;;;;2.58;1.20;;;7.50;99.90;;;;;;4427214;32;20069;-72
2021/03/16 12:56:03;;;;;;;0.47;0.47;;;7.60;99.90;;;;;;4427920;32;20070;-73
2021/03/16 12:58:29;;;;;;;0.40;0.40;;;7.60;99.90;;;;;;4426571;32;20120;-72